Time;durP1;ratioP1;P1;durP2;ratioP2;P2;SDS_P1;SDS_P2;PMS_P1;PMS_P2;Temp;Humidity;BMP_temperature;BMP_pressure;BME280_temperature;BME280_humidity;BME280_pressure;Samples;Min_cycle;Max_cycle;Signal;HPM_P1;HPM_P2
2023/02/07 05:33:02;;;;;;;9.32;4.82;;;2.90;72.20;;;;;;5564812;23;20047;-77
2023/02/07 05:34:07;;;;;;;11.88;4.80;;;3.00;72.20;;;;;;4920614;29;20043;-78
2023/02/07 05:36:33;;;;;;;9.43;4.30;;;3.00;72.20;;;;;;4922036;29;20394;-78
2023/02/07 05:38:58;;;;;;;6.57;4.75;;;3.00;72.20;;;;;;4918684;29;20522;-78
2023/02/07 05:41:24;;;;;;;5.53;3.97;;;3.00;72.20;;;;;;4921783;29;20079;-78
2023/02/07 05:43:49;;;;;;;4.97;4.35;;;3.00;72.10;;;;;;4921895;29;20032;-78
2023/02/07 05:46:15;;;;;;;13.63;6.68;;;3.10;72.10;;;;;;4921692;29;20028;-78
2023/02/07 05:48:41;;;;;;;6.40;4.63;;;3.00;72.10;;;;;;4921098;29;20032;-78
2023/02/07 05:51:06;;;;;;;11.35;5.00;;;3.00;72.20;;;;;;4917216;29;20536;-79
2023/02/07 05:53:32;;;;;;;6.30;4.90;;;3.00;72.20;;;;;;4902776;29;20112;-76
2023/02/07 05:55:57;;;;;;;12.60;5.10;;;3.00;72.20;;;;;;4916830;29;20115;-77
2023/02/07 05:58:23;;;;;;;8.55;5.63;;;3.10;72.20;;;;;;4921250;29;20028;-77
2023/02/07 06:00:49;;;;;;;17.90;6.43;;;3.10;72.00;;;;;;4921334;29;20039;-79
2023/02/07 06:03:14;;;;;;;12.63;5.43;;;3.10;71.90;;;;;;4925485;29;20083;-79
2023/02/07 06:05:40;;;;;;;11.80;6.85;;;3.20;71.80;;;;;;4934923;29;20116;-80
2023/02/07 06:08:06;;;;;;;16.95;6.63;;;3.10;71.80;;;;;;4924423;29;20514;-79
2023/02/07 06:10:32;;;;;;;16.65;6.68;;;3.00;71.80;;;;;;4921689;29;20036;-80
2023/02/07 06:12:57;;;;;;;5.43;4.72;;;2.90;72.00;;;;;;4939217;29;20034;-78
2023/02/07 06:15:23;;;;;;;12.50;6.25;;;3.00;72.10;;;;;;4935291;29;20039;-82
2023/02/07 06:17:49;;;;;;;8.10;5.72;;;2.90;72.20;;;;;;4916480;29;20039;-77
2023/02/07 06:20:15;;;;;;;8.90;5.85;;;2.90;72.10;;;;;;4923495;29;20883;-78
2023/02/07 06:22:43;;;;;;;31.48;8.88;;;2.90;72.10;;;;;;4931260;29;20140;-79
2023/02/07 06:25:10;;;;;;;12.77;7.28;;;2.90;72.10;;;;;;4920259;29;20036;-76
2023/02/07 06:27:37;;;;;;;8.65;5.47;;;2.90;72.10;;;;;;4921417;29;20024;-78
2023/02/07 06:30:03;;;;;;;13.32;6.30;;;3.00;72.10;;;;;;4908190;29;20127;-77
2023/02/07 06:32:29;;;;;;;17.25;7.40;;;3.00;72.20;;;;;;4907310;29;20052;-78
2023/02/07 06:34:54;;;;;;;11.07;6.25;;;2.90;72.10;;;;;;4921147;29;20039;-77
2023/02/07 06:37:20;;;;;;;15.25;6.18;;;2.80;72.40;;;;;;4925952;29;20020;-78
2023/02/07 06:39:53;;;;;;;10.65;5.40;;;2.80;72.70;;;;;;4921141;29;20039;-78
2023/02/07 06:42:19;;;;;;;11.13;5.32;;;2.80;72.90;;;;;;4920983;29;20479;-78
2023/02/07 06:44:44;;;;;;;18.42;8.32;;;2.70;73.00;;;;;;4928062;29;20376;-79
2023/02/07 06:47:10;;;;;;;13.18;6.35;;;2.70;73.00;;;;;;4914389;29;20061;-76
2023/02/07 06:49:36;;;;;;;11.95;5.00;;;2.70;73.20;;;;;;4901124;29;20403;-80
2023/02/07 06:52:01;;;;;;;10.63;6.15;;;2.70;73.10;;;;;;4904226;29;20617;-80
2023/02/07 06:54:27;;;;;;;11.38;6.00;;;2.70;73.30;;;;;;4911271;29;20121;-80
2023/02/07 06:56:58;;;;;;;12.18;7.07;;;2.70;73.40;;;;;;4906072;29;20028;-80
2023/02/07 06:59:23;;;;;;;17.80;8.25;;;2.70;73.50;;;;;;4900890;29;20123;-79
2023/02/07 07:01:49;;;;;;;22.77;7.80;;;2.70;73.30;;;;;;4926850;29;20059;-80
2023/02/07 07:04:15;;;;;;;26.83;6.90;;;2.70;73.50;;;;;;4922223;29;20491;-80
2023/02/07 07:06:40;;;;;;;11.65;6.78;;;2.70;73.30;;;;;;4920633;29;20088;-79
2023/02/07 07:09:06;;;;;;;12.13;6.18;;;2.70;73.60;;;;;;4920411;29;20024;-79
2023/02/07 07:11:32;;;;;;;19.98;7.72;;;2.70;73.60;;;;;;4927107;29;20127;-79
2023/02/07 07:14:08;;;;;;;14.80;7.55;;;2.70;73.70;;;;;;4920555;29;20399;-79
2023/02/07 07:16:34;;;;;;;19.13;8.23;;;2.70;73.60;;;;;;4913897;29;20028;-80
2023/02/07 07:19:00;;;;;;;10.98;7.75;;;2.70;73.70;;;;;;4907014;29;20515;-79
2023/02/07 07:21:26;;;;;;;13.45;6.05;;;2.70;73.80;;;;;;4907504;29;20036;-79
2023/02/07 07:23:53;;;;;;;20.65;7.63;;;2.70;74.00;;;;;;4920309;29;20103;-79
2023/02/07 07:26:19;;;;;;;14.57;7.55;;;2.70;73.90;;;;;;4920235;29;20884;-79
2023/02/07 07:28:45;;;;;;;10.63;5.82;;;2.60;74.00;;;;;;4918673;29;20091;-79
2023/02/07 07:31:13;;;;;;;9.57;5.82;;;2.60;74.50;;;;;;4899963;29;20064;-79
2023/02/07 07:33:38;;;;;;;22.75;7.53;;;2.70;74.50;;;;;;4912514;29;20032;-79
2023/02/07 07:36:05;;;;;;;21.13;8.98;;;2.70;74.50;;;;;;4920378;29;20032;-80
2023/02/07 07:38:31;;;;;;;11.82;6.65;;;2.70;74.50;;;;;;4919417;29;20067;-79
2023/02/07 07:40:57;;;;;;;21.02;7.85;;;2.70;74.60;;;;;;4919242;29;20031;-80
2023/02/07 07:43:23;;;;;;;13.30;6.22;;;2.70;74.60;;;;;;4907678;29;20487;-80
2023/02/07 07:45:53;;;;;;;20.55;8.15;;;2.70;74.40;;;;;;4920014;29;20020;-79
2023/02/07 07:48:20;;;;;;;24.48;9.27;;;2.70;74.50;;;;;;4920032;29;20039;-79
2023/02/07 07:50:45;;;;;;;14.10;8.10;;;2.70;74.60;;;;;;4915334;29;20507;-79
2023/02/07 07:53:11;;;;;;;15.77;8.02;;;2.70;74.70;;;;;;4901682;29;20033;-79
2023/02/07 07:55:37;;;;;;;11.65;6.45;;;2.70;74.90;;;;;;4919876;29;20028;-79
2023/02/07 07:58:03;;;;;;;12.27;7.65;;;2.70;74.90;;;;;;4919963;29;20460;-80
2023/02/07 08:00:29;;;;;;;18.52;8.02;;;2.70;74.80;;;;;;4917956;29;20534;-80
2023/02/07 08:02:55;;;;;;;14.82;7.30;;;2.80;74.80;;;;;;4933057;29;20067;-80
2023/02/07 08:05:20;;;;;;;23.05;8.73;;;2.80;74.80;;;;;;4919755;29;20032;-80
2023/02/07 08:07:46;;;;;;;16.85;7.15;;;2.80;74.60;;;;;;4919322;29;20722;-80
2023/02/07 08:10:12;;;;;;;12.13;7.90;;;2.90;74.50;;;;;;4919128;29;20083;-80
2023/02/07 08:12:37;;;;;;;12.85;6.88;;;2.90;74.40;;;;;;4938640;29;20019;-80
2023/02/07 08:15:03;;;;;;;20.17;9.05;;;2.90;74.40;;;;;;4937369;29;20087;-80
2023/02/07 08:17:29;;;;;;;11.75;6.85;;;2.90;74.40;;;;;;4925727;29;20028;-80
2023/02/07 08:19:55;;;;;;;21.38;6.70;;;2.90;74.40;;;;;;4919577;29;20168;-81
2023/02/07 08:22:21;;;;;;;14.52;6.38;;;2.90;74.50;;;;;;4919552;29;20020;-81
2023/02/07 08:24:46;;;;;;;14.63;7.30;;;3.00;74.40;;;;;;4918900;29;20068;-81
2023/02/07 08:27:13;;;;;;;19.45;7.75;;;3.00;74.30;;;;;;4919564;29;20032;-80
2023/02/07 08:29:39;;;;;;;16.40;9.10;;;3.00;74.30;;;;;;4917550;29;20032;-81
2023/02/07 08:32:05;;;;;;;11.25;6.00;;;3.10;74.20;;;;;;4900599;29;20080;-81
2023/02/07 08:34:36;;;;;;;14.73;8.20;;;3.10;74.30;;;;;;4906317;29;20037;-79
2023/02/07 08:37:06;;;;;;;8.77;5.78;;;3.20;74.00;;;;;;4899308;29;20037;-79
2023/02/07 08:39:33;;;;;;;18.38;7.50;;;3.20;73.90;;;;;;4899113;29;20036;-79
2023/02/07 08:41:59;;;;;;;22.40;7.22;;;3.20;73.90;;;;;;4900484;29;20036;-79
2023/02/07 08:44:25;;;;;;;10.27;6.05;;;3.20;73.90;;;;;;4904797;29;20048;-80
2023/02/07 08:46:50;;;;;;;15.27;7.55;;;3.30;73.90;;;;;;4900261;29;20025;-80
2023/02/07 08:49:16;;;;;;;23.75;6.97;;;3.30;73.80;;;;;;4900486;29;20032;-80
2023/02/07 08:51:42;;;;;;;17.15;6.95;;;3.30;74.00;;;;;;4900333;29;20028;-80
2023/02/07 08:54:08;;;;;;;13.18;6.30;;;3.50;73.80;;;;;;4907712;29;20040;-80
2023/02/07 08:56:33;;;;;;;12.80;6.90;;;3.90;73.10;;;;;;4919173;29;20503;-80
2023/02/07 08:58:59;;;;;;;13.27;6.63;;;4.30;71.30;;;;;;4914983;29;20033;-80
2023/02/07 09:01:25;;;;;;;20.90;8.85;;;4.70;70.60;;;;;;4927702;29;20032;-80
2023/02/07 09:03:55;;;;;;;15.68;8.05;;;4.70;70.20;;;;;;4924012;29;20028;-80
2023/02/07 09:06:22;;;;;;;10.63;5.80;;;4.40;70.60;;;;;;4919154;29;20043;-79
2023/02/07 09:08:48;;;;;;;15.20;6.00;;;4.30;70.70;;;;;;4918494;29;20083;-79
2023/02/07 09:11:14;;;;;;;12.15;6.85;;;4.10;70.90;;;;;;4927818;29;20028;-80
2023/02/07 09:13:44;;;;;;;13.80;7.18;;;4.20;71.00;;;;;;4938091;29;20039;-79
2023/02/07 09:16:10;;;;;;;9.93;6.00;;;4.20;70.80;;;;;;4925555;29;20024;-80
2023/02/07 09:18:36;;;;;;;13.18;6.15;;;4.20;70.50;;;;;;4917736;29;20064;-81
2023/02/07 09:21:02;;;;;;;15.15;6.97;;;4.30;70.00;;;;;;4918928;29;20901;-81
2023/02/07 09:23:27;;;;;;;12.30;6.03;;;4.60;69.90;;;;;;4915555;29;20190;-79
2023/02/07 09:25:53;;;;;;;9.10;5.50;;;4.90;68.90;;;;;;4918938;29;20059;-79
2023/02/07 09:28:21;;;;;;;11.27;6.13;;;5.60;67.60;;;;;;4921713;29;20115;-81
2023/02/07 09:30:47;;;;;;;12.82;6.07;;;6.20;65.10;;;;;;4922152;29;20043;-79
2023/02/07 09:33:14;;;;;;;13.77;8.75;;;6.80;63.00;;;;;;4921926;29;20518;-80
2023/02/07 09:35:45;;;;;;;12.20;7.43;;;7.50;60.20;;;;;;4920176;29;20032;-80
2023/02/07 09:38:17;;;;;;;12.25;5.45;;;7.90;58.60;;;;;;4910129;29;20032;-80
2023/02/07 09:40:44;;;;;;;13.88;5.22;;;8.50;57.90;;;;;;4921245;29;20060;-80
2023/02/07 09:43:52;;;;;;;13.88;6.13;;;8.90;56.50;;;;;;4921713;29;20032;-79
2023/02/07 09:46:23;;;;;;;11.52;5.15;;;8.60;54.40;;;;;;4920728;29;20028;-80
2023/02/07 09:49:22;;;;;;;12.60;7.18;;;8.60;54.50;;;;;;4920752;29;20031;-80
2023/02/07 09:51:51;;;;;;;14.88;7.85;;;8.80;54.30;;;;;;4920483;29;20509;-80
2023/02/07 09:54:36;;;;;;;11.48;6.35;;;9.30;52.50;;;;;;4922077;29;20055;-81
2023/02/07 09:57:10;;;;;;;11.15;6.05;;;9.80;51.50;;;;;;4922012;29;20043;-80
2023/02/07 09:59:44;;;;;;;11.80;6.55;;;10.10;50.40;;;;;;4920403;29;20040;-81
2023/02/07 10:02:20;;;;;;;9.13;6.32;;;10.20;50.20;;;;;;4937675;29;20090;-81
2023/02/07 10:04:48;;;;;;;11.80;6.22;;;10.40;49.80;;;;;;4916389;29;20032;-81
2023/02/07 10:07:13;;;;;;;9.15;5.90;;;10.30;49.40;;;;;;4920330;29;20075;-80
2023/02/07 10:09:43;;;;;;;10.63;5.53;;;9.90;49.10;;;;;;4921384;29;20040;-80
2023/02/07 10:12:17;;;;;;;12.88;4.88;;;9.50;50.00;;;;;;4937829;29;20106;-81
2023/02/07 10:15:05;;;;;;;10.88;5.18;;;9.00;50.60;;;;;;4924988;29;20507;-80
2023/02/07 10:17:50;;;;;;;11.50;5.07;;;8.60;51.50;;;;;;4921669;29;20063;-80
2023/02/07 10:20:30;;;;;;;9.25;5.57;;;8.10;52.70;;;;;;4921148;29;20036;-79
2023/02/07 10:23:04;;;;;;;8.48;5.05;;;7.80;53.60;;;;;;4921447;29;20043;-80
2023/02/07 10:25:53;;;;;;;15.88;5.70;;;7.30;54.90;;;;;;4921577;29;20056;-81
2023/02/07 10:28:25;;;;;;;9.80;4.70;;;7.00;56.00;;;;;;4921618;29;20016;-80
2023/02/07 10:30:56;;;;;;;14.00;7.20;;;6.80;56.20;;;;;;4920664;29;20064;-80
2023/02/07 10:33:26;;;;;;;15.60;6.70;;;6.60;57.10;;;;;;4921508;29;20028;-80
2023/02/07 10:35:53;;;;;;;9.27;5.22;;;6.60;58.30;;;;;;4920851;29;20098;-80
2023/02/07 10:38:30;;;;;;;12.32;5.57;;;6.60;58.70;;;;;;4920737;29;20020;-80
2023/02/07 10:41:05;;;;;;;11.52;4.85;;;6.50;58.50;;;;;;4920074;29;20040;-80
2023/02/07 10:43:34;;;;;;;6.95;4.45;;;6.50;58.80;;;;;;4920265;29;20468;-79
2023/02/07 10:46:08;;;;;;;10.13;4.20;;;6.50;58.00;;;;;;4901925;29;20116;-80
2023/02/07 10:48:36;;;;;;;7.82;4.28;;;6.50;58.60;;;;;;4902334;29;20080;-80
2023/02/07 10:51:38;;;;;;;7.55;4.53;;;6.50;57.60;;;;;;4902163;29;20040;-80
2023/02/07 10:54:07;;;;;;;10.98;4.90;;;6.60;58.70;;;;;;4901725;29;20041;-79
2023/02/07 10:56:36;;;;;;;10.35;3.72;;;6.70;57.50;;;;;;4920060;29;20027;-79
2023/02/07 10:59:03;;;;;;;10.75;5.28;;;6.70;57.30;;;;;;4921082;29;20463;-80
2023/02/07 11:01:32;;;;;;;5.85;3.80;;;6.70;57.00;;;;;;4930144;29;20032;-80
2023/02/07 11:03:58;;;;;;;10.60;4.20;;;6.70;56.50;;;;;;4925967;29;20399;-80
2023/02/07 11:06:29;;;;;;;8.65;4.60;;;6.70;55.80;;;;;;4905171;29;20035;-81
2023/02/07 11:09:19;;;;;;;6.95;3.95;;;6.70;56.00;;;;;;4901871;29;20025;-80
2023/02/07 11:11:50;;;;;;;7.03;3.22;;;6.70;55.70;;;;;;4925970;29;20056;-80
2023/02/07 11:14:25;;;;;;;7.68;4.57;;;6.70;56.00;;;;;;4922069;29;20040;-80
2023/02/07 11:16:53;;;;;;;9.38;4.85;;;6.70;56.30;;;;;;4916400;29;20043;-80
2023/02/07 11:19:26;;;;;;;7.25;4.00;;;6.80;55.50;;;;;;4913079;29;20035;-81
2023/02/07 11:22:07;;;;;;;10.40;4.47;;;6.70;55.10;;;;;;4920053;29;20028;-81
2023/02/07 11:24:36;;;;;;;5.05;3.72;;;6.70;55.50;;;;;;4920013;29;20029;-81
2023/02/07 11:27:11;;;;;;;11.88;4.80;;;6.80;54.60;;;;;;4920381;29;20035;-80
2023/02/07 11:29:43;;;;;;;11.48;6.13;;;6.80;54.80;;;;;;4912439;29;20043;-80
2023/02/07 11:32:14;;;;;;;7.25;3.72;;;6.80;53.60;;;;;;4910002;29;20071;-80
2023/02/07 11:35:04;;;;;;;6.63;3.17;;;6.80;53.40;;;;;;4900520;29;20065;-80
2023/02/07 11:37:31;;;;;;;10.25;4.15;;;6.80;53.00;;;;;;4901373;29;20032;-80
2023/02/07 11:40:29;;;;;;;7.55;2.72;;;6.90;53.50;;;;;;4901456;29;20025;-79
2023/02/07 11:43:02;;;;;;;10.00;4.63;;;6.90;52.90;;;;;;4900084;29;20087;-80
2023/02/07 11:45:30;;;;;;;5.95;2.88;;;6.80;53.20;;;;;;4911475;29;20559;-80
2023/02/07 11:47:56;;;;;;;6.43;4.78;;;6.80;53.50;;;;;;4916758;29;20032;-80
2023/02/07 11:50:29;;;;;;;7.00;4.05;;;6.90;54.50;;;;;;4913507;29;20123;-80
2023/02/07 11:52:58;;;;;;;10.02;4.22;;;6.90;54.30;;;;;;4914827;29;20112;-80
2023/02/07 11:55:34;;;;;;;11.50;5.00;;;7.00;54.00;;;;;;4909753;29;20127;-80
2023/02/07 11:58:07;;;;;;;9.43;4.03;;;7.10;54.30;;;;;;4901422;29;20036;-79
2023/02/07 12:00:36;;;;;;;7.28;4.40;;;7.10;54.00;;;;;;4907244;29;20027;-80
2023/02/07 12:03:08;;;;;;;10.63;5.30;;;7.10;55.00;;;;;;4931119;29;20075;-80
2023/02/07 12:05:41;;;;;;;9.85;4.97;;;7.20;55.00;;;;;;4919710;29;20447;-79
2023/02/07 12:08:19;;;;;;;10.98;5.30;;;7.20;54.40;;;;;;4919148;29;20060;-80
2023/02/07 12:11:01;;;;;;;7.05;5.50;;;7.20;53.90;;;;;;4924569;29;20016;-79
2023/02/07 12:14:03;;;;;;;15.90;5.95;;;7.20;54.80;;;;;;4937555;29;20095;-79
2023/02/07 12:16:34;;;;;;;8.07;5.18;;;7.20;54.80;;;;;;4923674;29;20040;-79
2023/02/07 12:19:11;;;;;;;11.68;5.28;;;7.20;54.50;;;;;;4919746;29;20099;-79
2023/02/07 12:21:59;;;;;;;9.77;5.30;;;7.20;54.40;;;;;;4918093;29;20042;-79
2023/02/07 12:24:44;;;;;;;13.15;5.00;;;7.20;54.60;;;;;;4919612;29;20101;-79
2023/02/07 12:27:18;;;;;;;6.32;4.28;;;7.30;54.50;;;;;;4900828;29;20029;-80
2023/02/07 12:29:55;;;;;;;7.90;4.82;;;7.20;52.60;;;;;;4900691;29;20035;-79
2023/02/07 12:32:39;;;;;;;7.60;4.28;;;7.20;51.10;;;;;;4901694;29;20060;-79
2023/02/07 12:35:23;;;;;;;6.07;4.15;;;7.30;51.50;;;;;;4917624;29;20040;-79
2023/02/07 12:37:58;;;;;;;7.03;4.60;;;7.10;49.90;;;;;;4919471;29;20384;-79
2023/02/07 12:40:33;;;;;;;9.85;5.07;;;7.10;51.20;;;;;;4919464;29;20058;-79
2023/02/07 12:43:29;;;;;;;11.60;4.63;;;7.30;53.20;;;;;;4919044;29;20376;-79
2023/02/07 12:46:06;;;;;;;8.18;4.93;;;7.40;53.50;;;;;;4918713;29;20035;-79
2023/02/07 12:48:47;;;;;;;13.18;5.15;;;7.40;53.70;;;;;;4919338;29;20028;-79
2023/02/07 12:51:28;;;;;;;7.30;4.63;;;7.50;51.70;;;;;;4919011;29;20020;-79
2023/02/07 12:54:18;;;;;;;9.85;5.20;;;7.60;50.60;;;;;;4919219;29;20020;-79
2023/02/07 12:56:59;;;;;;;7.78;5.13;;;7.70;50.10;;;;;;4899154;29;20092;-79
2023/02/07 12:59:49;;;;;;;8.05;4.43;;;7.70;49.70;;;;;;4900317;29;20040;-79
2023/02/07 13:03:05;;;;;;;7.28;4.68;;;7.60;49.10;;;;;;4925846;29;20044;-79
2023/02/07 13:06:01;;;;;;;3.75;3.30;;;7.60;49.40;;;;;;4883135;29;20033;-79
2023/02/07 13:08:54;;;;;;;8.40;4.68;;;7.40;48.70;;;;;;4883113;29;20033;-79
2023/02/07 13:11:31;;;;;;;8.32;5.13;;;7.70;50.10;;;;;;4919033;29;20039;-79
2023/02/07 13:14:07;;;;;;;8.45;5.07;;;7.70;50.20;;;;;;4941758;29;20486;-79
2023/02/07 13:16:54;;;;;;;9.85;4.82;;;7.80;49.20;;;;;;4934142;29;20035;-79
2023/02/07 13:19:25;;;;;;;7.60;4.68;;;7.80;49.10;;;;;;4922904;29;20582;-79
2023/02/07 13:22:01;;;;;;;6.75;4.57;;;7.80;49.00;;;;;;4922737;29;20522;-79
2023/02/07 13:24:29;;;;;;;8.73;4.10;;;7.80;48.70;;;;;;4921763;29;20109;-79
2023/02/07 13:26:59;;;;;;;12.00;4.88;;;7.80;49.60;;;;;;4920477;29;20035;-80
2023/02/07 13:29:28;;;;;;;12.02;6.80;;;7.80;48.90;;;;;;4919951;29;20059;-79
2023/02/07 13:32:04;;;;;;;6.75;4.25;;;7.80;48.60;;;;;;4922248;29;20052;-79
2023/02/07 13:34:41;;;;;;;10.25;5.10;;;7.80;48.80;;;;;;4922446;29;20039;-79
2023/02/07 13:37:11;;;;;;;5.90;4.28;;;7.80;49.30;;;;;;4922016;29;20039;-79
2023/02/07 13:40:03;;;;;;;9.38;6.07;;;8.00;49.60;;;;;;4922397;29;20032;-79
2023/02/07 13:42:43;;;;;;;10.77;4.45;;;8.00;49.30;;;;;;4916203;29;20024;-86
2023/02/07 13:45:16;;;;;;;10.27;5.43;;;8.10;48.90;;;;;;4912296;29;20039;-80
2023/02/07 13:47:48;;;;;;;8.00;4.68;;;8.20;48.80;;;;;;4915449;29;20016;-80
2023/02/07 13:50:27;;;;;;;7.85;4.65;;;8.10;48.10;;;;;;4916145;29;20048;-80
2023/02/07 13:53:33;;;;;;;7.40;3.72;;;8.10;47.80;;;;;;4909303;29;20056;-78
2023/02/07 13:56:07;;;;;;;8.23;5.15;;;8.10;48.00;;;;;;4918738;29;20067;-78
2023/02/07 14:01:23;;;;;;;11.32;5.07;;;8.10;47.50;;;;;;4914039;29;20088;-79
2023/02/07 14:04:03;;;;;;;9.77;5.38;;;8.10;47.40;;;;;;4915251;29;20084;-79
2023/02/07 14:06:34;;;;;;;9.50;4.50;;;7.90;47.40;;;;;;4913859;29;20032;-79
2023/02/07 14:09:12;;;;;;;7.32;4.20;;;8.10;47.50;;;;;;4912315;29;20024;-79
2023/02/07 14:11:40;;;;;;;8.98;4.30;;;8.00;47.70;;;;;;4917805;29;20036;-79
2023/02/07 14:14:14;;;;;;;7.05;4.78;;;8.10;48.10;;;;;;4908338;29;20032;-79
2023/02/07 14:16:59;;;;;;;7.57;3.50;;;8.00;46.90;;;;;;4911832;29;20039;-79
2023/02/07 14:19:49;;;;;;;9.15;4.40;;;8.10;47.30;;;;;;4913125;29;20412;-79
2023/02/07 14:22:19;;;;;;;7.30;4.03;;;8.20;46.70;;;;;;4904559;29;20460;-79
2023/02/07 14:24:57;;;;;;;6.45;4.13;;;8.20;46.30;;;;;;4908978;29;20063;-79
2023/02/07 14:27:39;;;;;;;7.95;4.80;;;8.20;46.70;;;;;;4918455;29;20549;-78
2023/02/07 14:30:10;;;;;;;11.05;4.57;;;8.20;47.40;;;;;;4916921;29;20031;-82
2023/02/07 14:32:44;;;;;;;7.25;4.82;;;8.20;47.10;;;;;;4913509;29;20036;-79
2023/02/07 14:35:15;;;;;;;7.10;4.82;;;8.20;47.60;;;;;;4918210;29;20040;-79
2023/02/07 14:37:55;;;;;;;10.32;5.18;;;8.20;47.50;;;;;;4919619;29;20032;-80
2023/02/07 14:40:24;;;;;;;11.65;5.78;;;8.20;47.00;;;;;;4917565;29;20094;-79
2023/02/07 14:43:16;;;;;;;6.53;5.35;;;8.10;47.00;;;;;;4914340;29;20040;-79
2023/02/07 14:45:50;;;;;;;7.72;4.93;;;8.20;46.90;;;;;;4916100;29;20036;-79
2023/02/07 14:48:44;;;;;;;7.88;4.97;;;8.20;47.40;;;;;;4918350;29;20028;-79
2023/02/07 14:51:21;;;;;;;7.88;5.25;;;8.20;47.80;;;;;;4918303;29;20575;-79
2023/02/07 14:54:02;;;;;;;9.00;5.32;;;8.20;48.30;;;;;;4916313;29;20396;-79
2023/02/07 14:56:51;;;;;;;6.18;4.72;;;8.10;47.30;;;;;;4917305;29;20028;-79
2023/02/07 14:59:34;;;;;;;13.30;5.65;;;8.20;48.00;;;;;;4917462;29;20029;-79
2023/02/07 15:02:38;;;;;;;9.38;5.68;;;8.20;46.90;;;;;;4916662;29;20168;-79
2023/02/07 15:05:35;;;;;;;8.90;4.95;;;7.90;46.80;;;;;;4918127;29;20028;-79
2023/02/07 15:08:01;;;;;;;7.57;5.47;;;8.10;48.10;;;;;;4918438;29;20020;-79
2023/02/07 15:10:33;;;;;;;8.38;5.00;;;8.20;48.40;;;;;;4919745;29;20020;-79
2023/02/07 15:13:01;;;;;;;10.80;6.43;;;8.10;48.60;;;;;;4917054;29;20055;-79
2023/02/07 15:15:55;;;;;;;10.18;5.50;;;8.20;48.60;;;;;;4918084;29;20475;-79
2023/02/07 15:18:24;;;;;;;10.48;4.93;;;8.20;48.90;;;;;;4868342;29;20048;-79
2023/02/07 15:20:52;;;;;;;6.65;4.25;;;8.20;48.50;;;;;;4901009;29;20396;-79
2023/02/07 15:23:19;;;;;;;8.80;5.63;;;8.20;48.70;;;;;;4913631;29;20400;-80
2023/02/07 15:25:45;;;;;;;8.68;5.30;;;8.00;48.70;;;;;;4916313;29;20395;-80
2023/02/07 15:28:25;;;;;;;9.20;5.90;;;8.00;49.30;;;;;;4918105;29;20034;-80
2023/02/07 15:31:15;;;;;;;10.88;5.05;;;7.70;48.30;;;;;;4916078;29;20060;-80
2023/02/07 15:33:49;;;;;;;11.95;6.07;;;7.80;49.60;;;;;;4913665;29;20171;-79
2023/02/07 15:36:34;;;;;;;7.57;4.68;;;7.80;49.60;;;;;;4918441;29;20036;-80
2023/02/07 15:39:04;;;;;;;10.25;5.85;;;7.80;50.00;;;;;;4914875;29;20039;-80
2023/02/07 15:41:30;;;;;;;13.70;4.43;;;7.70;49.80;;;;;;4916671;29;20107;-81
2023/02/07 15:44:17;;;;;;;13.73;5.80;;;7.80;50.50;;;;;;4909304;29;20043;-79
2023/02/07 15:47:03;;;;;;;17.15;8.60;;;7.80;50.90;;;;;;4915647;29;20032;-76
2023/02/07 15:49:40;;;;;;;12.32;5.68;;;7.70;50.40;;;;;;4910790;29;20035;-78
2023/02/07 15:52:23;;;;;;;9.35;5.70;;;7.80;51.20;;;;;;4909783;29;20514;-88
2023/02/07 15:54:51;;;;;;;9.73;5.03;;;7.90;51.00;;;;;;4918063;29;20024;-79
2023/02/07 15:57:39;;;;;;;10.10;5.90;;;7.80;50.80;;;;;;4909347;29;20039;-80
2023/02/07 16:00:12;;;;;;;12.95;4.78;;;7.80;51.00;;;;;;4907283;29;20043;-79
2023/02/07 16:02:41;;;;;;;10.05;4.90;;;7.50;50.90;;;;;;4903774;29;20056;-79
2023/02/07 16:05:21;;;;;;;7.80;4.75;;;7.40;51.50;;;;;;4919737;29;20063;-79
2023/02/07 16:07:47;;;;;;;10.05;4.70;;;7.50;52.10;;;;;;4920137;29;20028;-79
2023/02/07 16:10:22;;;;;;;11.27;6.57;;;7.50;52.50;;;;;;4920014;29;20535;-79
2023/02/07 16:12:58;;;;;;;9.23;5.65;;;7.40;52.90;;;;;;4938675;29;20028;-79
2023/02/07 16:15:36;;;;;;;10.15;6.38;;;7.50;52.90;;;;;;4937279;29;20027;-79
2023/02/07 16:18:03;;;;;;;9.82;5.88;;;7.50;53.30;;;;;;4923112;29;20032;-79
2023/02/07 16:20:32;;;;;;;8.55;4.47;;;7.50;53.10;;;;;;4919333;29;20036;-79
2023/02/07 16:23:06;;;;;;;8.05;4.40;;;7.40;52.40;;;;;;4918390;29;20028;-79
2023/02/07 16:25:34;;;;;;;8.80;4.57;;;7.40;52.60;;;;;;4918533;29;20028;-79
2023/02/07 16:28:00;;;;;;;14.70;6.78;;;7.30;53.40;;;;;;4918026;29;20036;-79
2023/02/07 16:30:31;;;;;;;9.63;4.53;;;7.40;53.30;;;;;;4918007;29;20056;-79
2023/02/07 16:32:56;;;;;;;;;;;7.20;53.40;;;;;;4918742;29;20631;-79
2023/02/07 16:35:25;;;;;;;8.57;6.05;;;7.20;54.20;;;;;;4919958;29;20068;-79
2023/02/07 16:37:52;;;;;;;13.00;4.47;;;7.10;53.80;;;;;;4917817;29;20042;-79
2023/02/07 16:40:21;;;;;;;8.95;5.75;;;7.10;54.20;;;;;;4918046;29;20031;-79
2023/02/07 16:42:47;;;;;;;11.50;5.05;;;7.20;54.40;;;;;;4919844;29;20036;-79
2023/02/07 16:45:19;;;;;;;13.52;6.25;;;7.20;54.50;;;;;;4919673;29;20508;-79
2023/02/07 16:47:45;;;;;;;10.95;6.03;;;7.10;54.50;;;;;;4900905;29;20139;-79
2023/02/07 16:50:20;;;;;;;9.98;5.70;;;7.20;54.70;;;;;;4905445;29;20025;-78
2023/02/07 16:52:48;;;;;;;12.88;6.10;;;7.10;55.00;;;;;;4919499;29;20067;-78
2023/02/07 16:55:15;;;;;;;10.18;6.10;;;7.10;55.10;;;;;;4919435;29;20523;-79
2023/02/07 16:57:42;;;;;;;10.15;6.75;;;7.10;55.20;;;;;;4918976;29;20024;-78
2023/02/07 17:00:12;;;;;;;8.77;5.97;;;7.00;55.50;;;;;;4919290;29;20035;-78
2023/02/07 17:02:37;;;;;;;10.00;6.35;;;6.90;55.60;;;;;;4906090;29;20075;-78
2023/02/07 17:05:03;;;;;;;17.40;7.97;;;6.80;55.70;;;;;;4917005;29;20669;-78
2023/02/07 17:07:29;;;;;;;12.30;7.05;;;6.80;56.00;;;;;;4919331;29;20036;-78
2023/02/07 17:09:55;;;;;;;14.82;8.18;;;6.80;56.30;;;;;;4905483;29;20032;-78
2023/02/07 17:12:21;;;;;;;10.80;6.68;;;6.70;56.20;;;;;;4924794;29;20031;-78
2023/02/07 17:14:47;;;;;;;11.55;7.22;;;6.70;56.00;;;;;;4912876;29;20032;-82
2023/02/07 17:17:13;;;;;;;14.63;7.22;;;6.60;56.30;;;;;;4912620;29;20028;-81
2023/02/07 17:19:38;;;;;;;14.90;8.73;;;6.60;56.60;;;;;;4900456;29;20032;-79
2023/02/07 17:22:04;;;;;;;14.68;9.00;;;6.60;56.50;;;;;;4923456;29;20043;-76
2023/02/07 17:24:32;;;;;;;15.57;8.43;;;6.50;56.80;;;;;;4921842;29;20020;-76
2023/02/07 17:26:58;;;;;;;17.65;8.10;;;6.40;57.00;;;;;;4917190;29;20039;-77
2023/02/07 17:29:24;;;;;;;17.73;7.80;;;6.40;57.00;;;;;;4918772;29;20495;-76
2023/02/07 17:31:50;;;;;;;17.15;8.00;;;6.30;57.30;;;;;;4913170;29;20435;-76
2023/02/07 17:34:16;;;;;;;13.32;8.57;;;6.30;57.20;;;;;;4914586;29;20175;-77
2023/02/07 17:36:46;;;;;;;17.63;8.95;;;6.30;57.30;;;;;;4913637;29;20108;-77
2023/02/07 17:39:13;;;;;;;17.88;9.35;;;6.30;57.40;;;;;;4908098;29;20024;-77
2023/02/07 17:41:39;;;;;;;18.70;8.60;;;6.40;57.40;;;;;;4908151;29;20040;-77
2023/02/07 17:44:05;;;;;;;15.77;9.40;;;6.30;57.30;;;;;;4906130;29;20092;-77
2023/02/07 17:46:32;;;;;;;17.58;10.25;;;6.20;57.70;;;;;;4908810;29;20020;-77
2023/02/07 17:48:58;;;;;;;16.63;9.38;;;6.20;57.70;;;;;;4920330;29;20107;-77
2023/02/07 17:51:26;;;;;;;18.48;9.73;;;6.20;57.80;;;;;;4921432;29;20487;-78
2023/02/07 17:53:54;;;;;;;23.38;10.05;;;6.20;57.80;;;;;;4921853;29;20027;-77
2023/02/07 17:56:23;;;;;;;25.75;11.38;;;6.20;57.80;;;;;;4920609;29;20071;-77
2023/02/07 17:58:50;;;;;;;25.38;11.88;;;6.20;57.80;;;;;;4916797;29;20059;-77
2023/02/07 18:01:18;;;;;;;25.13;11.30;;;6.20;57.90;;;;;;4920886;29;20067;-77
2023/02/07 18:03:48;;;;;;;19.77;9.90;;;6.10;57.70;;;;;;4919684;29;20043;-77
2023/02/07 18:06:17;;;;;;;;;;;6.10;58.00;;;;;;4922355;29;20032;-78
2023/02/07 18:08:48;;;;;;;28.08;11.35;;;6.00;58.10;;;;;;4921447;29;20035;-77
2023/02/07 18:11:14;;;;;;;23.65;12.02;;;6.00;58.10;;;;;;4930026;29;20036;-77
2023/02/07 18:13:41;;;;;;;21.95;10.30;;;6.00;58.20;;;;;;4920381;29;20099;-77
2023/02/07 18:16:10;;;;;;;17.40;8.35;;;5.90;58.30;;;;;;4921244;29;20169;-77
2023/02/07 18:18:36;;;;;;;17.67;10.68;;;5.90;58.30;;;;;;4920883;29;20032;-85
2023/02/07 18:21:02;;;;;;;22.73;10.60;;;5.90;58.40;;;;;;4914362;29;20032;-82
2023/02/07 18:23:28;;;;;;;27.42;12.05;;;5.90;58.60;;;;;;4917656;29;20029;-84
2023/02/07 18:25:56;;;;;;;19.75;10.88;;;5.90;58.40;;;;;;4902888;29;20035;-83
2023/02/07 18:28:22;;;;;;;19.17;9.73;;;5.80;58.70;;;;;;4908410;29;20079;-80
2023/02/07 18:30:48;;;;;;;27.65;11.50;;;5.80;58.70;;;;;;4917036;29;20044;-80
2023/02/07 18:33:15;;;;;;;24.90;10.43;;;5.70;58.90;;;;;;4910341;29;20032;-81
2023/02/07 18:35:42;;;;;;;25.65;10.63;;;5.70;58.90;;;;;;4914735;29;20036;-80
2023/02/07 18:38:07;;;;;;;21.65;10.65;;;5.70;58.70;;;;;;4927058;29;20808;-87
2023/02/07 18:40:33;;;;;;;28.05;10.95;;;5.60;59.10;;;;;;4921016;29;20051;-84
2023/02/07 18:42:59;;;;;;;19.58;10.38;;;5.70;58.90;;;;;;4918442;29;20047;-86
2023/02/07 18:45:24;;;;;;;18.70;10.05;;;5.60;59.20;;;;;;4922109;29;20523;-89
2023/02/07 18:47:51;;;;;;;19.65;9.65;;;5.50;59.30;;;;;;4923221;29;20044;-89